sensor_id;sensor_type;location;lat;lon;timestamp;P1;durP1;ratioP1;P2;durP2;ratioP2
20324;SDS011;10320;49.482;11.256;2023-09-19T00:01:39;5.03;;;3.53;;
20324;SDS011;10320;49.482;11.256;2023-09-19T00:04:06;4.27;;;3.47;;
20324;SDS011;10320;49.482;11.256;2023-09-19T00:06:38;5.07;;;3.20;;
20324;SDS011;10320;49.482;11.256;2023-09-19T00:09:04;3.60;;;3.30;;
20324;SDS011;10320;49.482;11.256;2023-09-19T00:11:35;5.77;;;3.37;;
20324;SDS011;10320;49.482;11.256;2023-09-19T00:14:01;4.00;;;3.10;;
20324;SDS011;10320;49.482;11.256;2023-09-19T00:16:27;3.40;;;3.10;;
20324;SDS011;10320;49.482;11.256;2023-09-19T00:18:53;4.43;;;3.30;;
20324;SDS011;10320;49.482;11.256;2023-09-19T00:21:20;3.90;;;3.17;;
20324;SDS011;10320;49.482;11.256;2023-09-19T00:23:47;3.80;;;3.07;;
20324;SDS011;10320;49.482;11.256;2023-09-19T00:26:14;3.30;;;3.00;;
20324;SDS011;10320;49.482;11.256;2023-09-19T00:28:40;5.13;;;2.93;;
20324;SDS011;10320;49.482;11.256;2023-09-19T00:31:07;5.20;;;3.07;;
20324;SDS011;10320;49.482;11.256;2023-09-19T00:33:34;4.80;;;3.30;;
20324;SDS011;10320;49.482;11.256;2023-09-19T00:36:01;4.53;;;3.33;;
20324;SDS011;10320;49.482;11.256;2023-09-19T00:38:30;3.20;;;2.90;;
20324;SDS011;10320;49.482;11.256;2023-09-19T00:40:57;3.93;;;3.43;;
20324;SDS011;10320;49.482;11.256;2023-09-19T00:43:24;6.40;;;3.10;;
20324;SDS011;10320;49.482;11.256;2023-09-19T00:45:52;5.17;;;3.40;;
20324;SDS011;10320;49.482;11.256;2023-09-19T00:48:19;4.63;;;3.10;;
20324;SDS011;10320;49.482;11.256;2023-09-19T00:50:46;7.17;;;3.50;;
20324;SDS011;10320;49.482;11.256;2023-09-19T00:53:14;5.40;;;3.47;;
20324;SDS011;10320;49.482;11.256;2023-09-19T00:55:43;6.70;;;3.40;;
20324;SDS011;10320;49.482;11.256;2023-09-19T00:58:25;5.10;;;3.30;;
20324;SDS011;10320;49.482;11.256;2023-09-19T01:00:51;6.53;;;3.50;;
20324;SDS011;10320;49.482;11.256;2023-09-19T01:03:18;3.80;;;3.23;;
20324;SDS011;10320;49.482;11.256;2023-09-19T01:05:44;4.90;;;3.10;;
20324;SDS011;10320;49.482;11.256;2023-09-19T01:08:10;5.60;;;3.50;;
20324;SDS011;10320;49.482;11.256;2023-09-19T01:10:37;4.53;;;3.37;;
20324;SDS011;10320;49.482;11.256;2023-09-19T01:18:11;5.93;;;3.47;;
20324;SDS011;10320;49.482;11.256;2023-09-19T01:29:06;4.83;;;3.30;;
20324;SDS011;10320;49.482;11.256;2023-09-19T01:31:09;6.57;;;3.20;;
20324;SDS011;10320;49.482;11.256;2023-09-19T01:36:28;4.50;;;3.30;;
20324;SDS011;10320;49.482;11.256;2023-09-19T01:38:54;4.93;;;3.27;;
20324;SDS011;10320;49.482;11.256;2023-09-19T01:41:41;5.13;;;3.60;;
20324;SDS011;10320;49.482;11.256;2023-09-19T01:44:11;5.90;;;3.33;;
20324;SDS011;10320;49.482;11.256;2023-09-19T01:46:40;5.87;;;3.37;;
20324;SDS011;10320;49.482;11.256;2023-09-19T01:54:32;4.97;;;3.20;;
20324;SDS011;10320;49.482;11.256;2023-09-19T01:57:03;3.90;;;3.20;;
20324;SDS011;10320;49.482;11.256;2023-09-19T01:59:35;3.30;;;3.00;;
20324;SDS011;10320;49.482;11.256;2023-09-19T02:02:05;5.00;;;3.60;;
20324;SDS011;10320;49.482;11.256;2023-09-19T02:04:33;5.57;;;3.10;;
20324;SDS011;10320;49.482;11.256;2023-09-19T02:07:02;5.00;;;3.50;;
20324;SDS011;10320;49.482;11.256;2023-09-19T02:09:30;7.80;;;3.40;;
20324;SDS011;10320;49.482;11.256;2023-09-19T02:12:00;4.30;;;3.00;;
20324;SDS011;10320;49.482;11.256;2023-09-19T02:14:26;4.07;;;3.03;;
20324;SDS011;10320;49.482;11.256;2023-09-19T02:16:54;3.63;;;2.70;;
20324;SDS011;10320;49.482;11.256;2023-09-19T02:19:21;4.63;;;3.03;;
20324;SDS011;10320;49.482;11.256;2023-09-19T02:21:47;3.63;;;2.73;;
20324;SDS011;10320;49.482;11.256;2023-09-19T02:24:14;3.17;;;2.77;;
20324;SDS011;10320;49.482;11.256;2023-09-19T02:26:40;3.33;;;2.57;;
20324;SDS011;10320;49.482;11.256;2023-09-19T02:29:06;4.57;;;3.10;;
20324;SDS011;10320;49.482;11.256;2023-09-19T02:31:32;6.00;;;3.30;;
20324;SDS011;10320;49.482;11.256;2023-09-19T02:33:58;7.03;;;3.20;;
20324;SDS011;10320;49.482;11.256;2023-09-19T02:36:25;3.77;;;2.73;;
20324;SDS011;10320;49.482;11.256;2023-09-19T02:38:51;6.27;;;2.80;;
20324;SDS011;10320;49.482;11.256;2023-09-19T02:41:18;3.80;;;2.60;;
20324;SDS011;10320;49.482;11.256;2023-09-19T02:43:44;4.80;;;2.83;;
20324;SDS011;10320;49.482;11.256;2023-09-19T02:46:10;3.40;;;2.70;;
20324;SDS011;10320;49.482;11.256;2023-09-19T02:48:36;5.83;;;2.63;;
20324;SDS011;10320;49.482;11.256;2023-09-19T02:51:03;3.03;;;2.67;;
20324;SDS011;10320;49.482;11.256;2023-09-19T02:53:30;3.60;;;2.47;;
20324;SDS011;10320;49.482;11.256;2023-09-19T02:55:57;2.60;;;2.40;;
20324;SDS011;10320;49.482;11.256;2023-09-19T02:58:24;4.50;;;2.87;;
20324;SDS011;10320;49.482;11.256;2023-09-19T03:00:50;4.23;;;2.53;;
20324;SDS011;10320;49.482;11.256;2023-09-19T03:03:16;4.50;;;2.50;;
20324;SDS011;10320;49.482;11.256;2023-09-19T03:05:42;3.60;;;2.40;;
20324;SDS011;10320;49.482;11.256;2023-09-19T03:08:12;2.83;;;2.10;;
20324;SDS011;10320;49.482;11.256;2023-09-19T03:10:40;4.20;;;2.40;;
20324;SDS011;10320;49.482;11.256;2023-09-19T03:13:06;3.73;;;2.40;;
20324;SDS011;10320;49.482;11.256;2023-09-19T03:15:34;2.70;;;2.27;;
20324;SDS011;10320;49.482;11.256;2023-09-19T03:18:03;2.33;;;2.07;;
20324;SDS011;10320;49.482;11.256;2023-09-19T03:20:30;3.07;;;2.20;;
20324;SDS011;10320;49.482;11.256;2023-09-19T03:22:56;4.27;;;2.20;;
20324;SDS011;10320;49.482;11.256;2023-09-19T03:25:22;2.63;;;2.43;;
20324;SDS011;10320;49.482;11.256;2023-09-19T03:27:49;4.47;;;2.40;;
20324;SDS011;10320;49.482;11.256;2023-09-19T03:30:15;2.40;;;2.13;;
20324;SDS011;10320;49.482;11.256;2023-09-19T03:32:45;2.90;;;2.30;;
20324;SDS011;10320;49.482;11.256;2023-09-19T03:35:11;2.20;;;1.87;;
20324;SDS011;10320;49.482;11.256;2023-09-19T03:37:39;2.47;;;2.20;;
20324;SDS011;10320;49.482;11.256;2023-09-19T03:40:05;3.43;;;2.43;;
20324;SDS011;10320;49.482;11.256;2023-09-19T03:42:32;3.20;;;2.20;;
20324;SDS011;10320;49.482;11.256;2023-09-19T03:45:01;3.67;;;2.00;;
20324;SDS011;10320;49.482;11.256;2023-09-19T03:47:30;3.90;;;2.40;;
20324;SDS011;10320;49.482;11.256;2023-09-19T03:49:56;3.63;;;2.50;;
20324;SDS011;10320;49.482;11.256;2023-09-19T03:52:22;2.57;;;2.10;;
20324;SDS011;10320;49.482;11.256;2023-09-19T03:54:50;3.47;;;2.57;;
20324;SDS011;10320;49.482;11.256;2023-09-19T03:57:16;5.30;;;2.27;;
20324;SDS011;10320;49.482;11.256;2023-09-19T03:59:45;3.50;;;2.47;;
20324;SDS011;10320;49.482;11.256;2023-09-19T04:02:12;3.77;;;2.40;;
20324;SDS011;10320;49.482;11.256;2023-09-19T04:04:47;2.63;;;2.43;;
20324;SDS011;10320;49.482;11.256;2023-09-19T04:07:13;3.93;;;2.60;;
20324;SDS011;10320;49.482;11.256;2023-09-19T04:09:39;3.83;;;2.87;;
20324;SDS011;10320;49.482;11.256;2023-09-19T04:12:05;3.43;;;2.57;;
20324;SDS011;10320;49.482;11.256;2023-09-19T04:14:31;4.37;;;2.37;;
20324;SDS011;10320;49.482;11.256;2023-09-19T04:16:57;5.07;;;2.50;;
20324;SDS011;10320;49.482;11.256;2023-09-19T04:19:23;2.83;;;2.37;;
20324;SDS011;10320;49.482;11.256;2023-09-19T04:21:49;3.70;;;2.53;;
20324;SDS011;10320;49.482;11.256;2023-09-19T04:24:15;3.77;;;2.67;;
20324;SDS011;10320;49.482;11.256;2023-09-19T04:26:44;4.43;;;2.73;;
20324;SDS011;10320;49.482;11.256;2023-09-19T04:29:10;6.27;;;2.80;;
20324;SDS011;10320;49.482;11.256;2023-09-19T04:31:38;3.70;;;2.50;;
20324;SDS011;10320;49.482;11.256;2023-09-19T04:34:08;4.23;;;2.73;;
20324;SDS011;10320;49.482;11.256;2023-09-19T04:36:35;3.07;;;2.70;;
20324;SDS011;10320;49.482;11.256;2023-09-19T04:39:02;4.07;;;3.10;;
20324;SDS011;10320;49.482;11.256;2023-09-19T04:41:30;3.70;;;3.17;;
20324;SDS011;10320;49.482;11.256;2023-09-19T04:43:56;4.17;;;2.60;;
20324;SDS011;10320;49.482;11.256;2023-09-19T04:46:23;3.43;;;2.50;;
20324;SDS011;10320;49.482;11.256;2023-09-19T04:48:49;3.40;;;2.77;;
20324;SDS011;10320;49.482;11.256;2023-09-19T04:51:15;4.20;;;2.93;;
20324;SDS011;10320;49.482;11.256;2023-09-19T04:53:41;3.90;;;2.77;;
20324;SDS011;10320;49.482;11.256;2023-09-19T04:56:09;3.70;;;2.60;;
20324;SDS011;10320;49.482;11.256;2023-09-19T04:58:35;3.83;;;2.50;;
20324;SDS011;10320;49.482;11.256;2023-09-19T05:01:01;3.37;;;2.50;;
20324;SDS011;10320;49.482;11.256;2023-09-19T05:03:27;5.17;;;2.70;;
20324;SDS011;10320;49.482;11.256;2023-09-19T05:05:54;4.73;;;2.97;;
20324;SDS011;10320;49.482;11.256;2023-09-19T05:08:20;5.07;;;2.60;;
20324;SDS011;10320;49.482;11.256;2023-09-19T05:10:47;5.23;;;2.90;;
20324;SDS011;10320;49.482;11.256;2023-09-19T05:13:14;3.30;;;2.63;;
20324;SDS011;10320;49.482;11.256;2023-09-19T05:15:40;3.53;;;2.67;;
20324;SDS011;10320;49.482;11.256;2023-09-19T05:18:06;3.57;;;2.77;;
20324;SDS011;10320;49.482;11.256;2023-09-19T05:20:32;3.23;;;2.53;;
20324;SDS011;10320;49.482;11.256;2023-09-19T05:23:06;3.57;;;2.53;;
20324;SDS011;10320;49.482;11.256;2023-09-19T05:25:36;3.10;;;2.10;;
20324;SDS011;10320;49.482;11.256;2023-09-19T05:28:04;2.63;;;2.20;;
20324;SDS011;10320;49.482;11.256;2023-09-19T05:30:30;3.47;;;2.37;;
20324;SDS011;10320;49.482;11.256;2023-09-19T05:32:57;4.10;;;2.10;;
20324;SDS011;10320;49.482;11.256;2023-09-19T05:35:23;2.57;;;2.10;;
20324;SDS011;10320;49.482;11.256;2023-09-19T05:37:53;2.90;;;2.20;;
20324;SDS011;10320;49.482;11.256;2023-09-19T05:40:20;2.23;;;2.03;;
20324;SDS011;10320;49.482;11.256;2023-09-19T05:42:46;2.77;;;2.20;;
20324;SDS011;10320;49.482;11.256;2023-09-19T05:45:13;3.63;;;2.40;;
20324;SDS011;10320;49.482;11.256;2023-09-19T05:47:39;3.33;;;2.20;;
20324;SDS011;10320;49.482;11.256;2023-09-19T05:50:09;2.87;;;2.50;;
20324;SDS011;10320;49.482;11.256;2023-09-19T05:52:36;3.73;;;2.20;;
20324;SDS011;10320;49.482;11.256;2023-09-19T05:55:06;3.97;;;2.47;;
20324;SDS011;10320;49.482;11.256;2023-09-19T05:57:35;4.50;;;2.20;;
20324;SDS011;10320;49.482;11.256;2023-09-19T06:00:04;4.13;;;2.30;;
20324;SDS011;10320;49.482;11.256;2023-09-19T06:02:34;2.87;;;2.40;;
20324;SDS011;10320;49.482;11.256;2023-09-19T06:05:00;3.27;;;2.10;;
20324;SDS011;10320;49.482;11.256;2023-09-19T06:07:28;2.93;;;2.10;;
20324;SDS011;10320;49.482;11.256;2023-09-19T06:10:01;2.30;;;2.10;;
20324;SDS011;10320;49.482;11.256;2023-09-19T06:12:27;3.37;;;2.20;;
20324;SDS011;10320;49.482;11.256;2023-09-19T06:14:55;2.10;;;1.90;;
20324;SDS011;10320;49.482;11.256;2023-09-19T06:17:21;4.03;;;1.83;;
20324;SDS011;10320;49.482;11.256;2023-09-19T06:19:47;2.00;;;1.80;;
20324;SDS011;10320;49.482;11.256;2023-09-19T06:22:16;2.53;;;1.77;;
20324;SDS011;10320;49.482;11.256;2023-09-19T06:24:45;3.10;;;1.80;;
20324;SDS011;10320;49.482;11.256;2023-09-19T06:27:12;2.30;;;1.77;;
20324;SDS011;10320;49.482;11.256;2023-09-19T06:29:38;2.60;;;1.80;;
20324;SDS011;10320;49.482;11.256;2023-09-19T06:32:07;5.40;;;2.20;;
20324;SDS011;10320;49.482;11.256;2023-09-19T06:34:34;2.30;;;1.90;;
20324;SDS011;10320;49.482;11.256;2023-09-19T06:37:00;2.67;;;1.80;;
20324;SDS011;10320;49.482;11.256;2023-09-19T06:39:28;3.07;;;1.77;;
20324;SDS011;10320;49.482;11.256;2023-09-19T06:41:54;2.83;;;1.70;;
20324;SDS011;10320;49.482;11.256;2023-09-19T06:44:20;2.57;;;1.83;;
20324;SDS011;10320;49.482;11.256;2023-09-19T06:46:49;1.73;;;1.60;;
20324;SDS011;10320;49.482;11.256;2023-09-19T06:49:16;4.33;;;1.90;;
20324;SDS011;10320;49.482;11.256;2023-09-19T06:51:42;2.07;;;1.77;;
20324;SDS011;10320;49.482;11.256;2023-09-19T06:54:09;2.50;;;1.67;;
20324;SDS011;10320;49.482;11.256;2023-09-19T06:56:35;2.00;;;1.80;;
20324;SDS011;10320;49.482;11.256;2023-09-19T06:59:01;2.37;;;1.77;;
20324;SDS011;10320;49.482;11.256;2023-09-19T07:01:28;2.63;;;1.77;;
20324;SDS011;10320;49.482;11.256;2023-09-19T07:03:54;2.77;;;1.83;;
20324;SDS011;10320;49.482;11.256;2023-09-19T07:06:20;2.07;;;1.70;;
20324;SDS011;10320;49.482;11.256;2023-09-19T07:08:46;2.50;;;2.10;;
20324;SDS011;10320;49.482;11.256;2023-09-19T07:11:13;3.83;;;2.30;;
20324;SDS011;10320;49.482;11.256;2023-09-19T07:13:40;2.83;;;1.83;;
20324;SDS011;10320;49.482;11.256;2023-09-19T07:16:06;3.43;;;1.90;;
20324;SDS011;10320;49.482;11.256;2023-09-19T07:18:35;2.53;;;1.93;;
20324;SDS011;10320;49.482;11.256;2023-09-19T07:21:01;2.77;;;1.83;;
20324;SDS011;10320;49.482;11.256;2023-09-19T07:23:31;1.90;;;1.50;;
20324;SDS011;10320;49.482;11.256;2023-09-19T07:26:00;2.00;;;1.67;;
20324;SDS011;10320;49.482;11.256;2023-09-19T07:28:26;1.92;;;1.58;;
20324;SDS011;10320;49.482;11.256;2023-09-19T07:30:53;2.07;;;1.80;;
20324;SDS011;10320;49.482;11.256;2023-09-19T07:33:19;2.00;;;1.77;;
20324;SDS011;10320;49.482;11.256;2023-09-19T07:35:46;1.90;;;1.57;;
20324;SDS011;10320;49.482;11.256;2023-09-19T07:38:13;2.37;;;1.73;;
20324;SDS011;10320;49.482;11.256;2023-09-19T07:40:40;3.37;;;1.70;;
20324;SDS011;10320;49.482;11.256;2023-09-19T07:43:06;1.95;;;1.52;;
20324;SDS011;10320;49.482;11.256;2023-09-19T07:45:32;2.80;;;1.75;;
20324;SDS011;10320;49.482;11.256;2023-09-19T07:47:59;1.83;;;1.63;;
20324;SDS011;10320;49.482;11.256;2023-09-19T07:50:29;3.35;;;1.73;;
20324;SDS011;10320;49.482;11.256;2023-09-19T07:52:55;2.37;;;1.60;;
20324;SDS011;10320;49.482;11.256;2023-09-19T07:55:22;3.23;;;1.63;;
20324;SDS011;10320;49.482;11.256;2023-09-19T07:57:48;2.37;;;1.73;;
20324;SDS011;10320;49.482;11.256;2023-09-19T08:00:15;2.30;;;1.67;;
20324;SDS011;10320;49.482;11.256;2023-09-19T08:02:41;2.20;;;1.50;;
20324;SDS011;10320;49.482;11.256;2023-09-19T08:05:09;2.57;;;1.60;;
20324;SDS011;10320;49.482;11.256;2023-09-19T08:07:39;2.78;;;1.55;;
20324;SDS011;10320;49.482;11.256;2023-09-19T08:10:05;2.00;;;1.60;;
20324;SDS011;10320;49.482;11.256;2023-09-19T08:12:39;2.23;;;1.57;;
20324;SDS011;10320;49.482;11.256;2023-09-19T08:15:18;3.05;;;2.00;;
20324;SDS011;10320;49.482;11.256;2023-09-19T08:17:48;2.50;;;1.70;;
20324;SDS011;10320;49.482;11.256;2023-09-19T08:20:15;3.10;;;1.83;;
20324;SDS011;10320;49.482;11.256;2023-09-19T08:22:43;2.45;;;1.88;;
20324;SDS011;10320;49.482;11.256;2023-09-19T08:25:11;2.17;;;1.50;;
20324;SDS011;10320;49.482;11.256;2023-09-19T08:27:39;3.40;;;1.83;;
20324;SDS011;10320;49.482;11.256;2023-09-19T08:30:05;2.70;;;1.77;;
20324;SDS011;10320;49.482;11.256;2023-09-19T08:32:32;4.25;;;1.70;;
20324;SDS011;10320;49.482;11.256;2023-09-19T08:34:58;2.58;;;1.92;;
20324;SDS011;10320;49.482;11.256;2023-09-19T08:37:24;3.08;;;1.95;;
20324;SDS011;10320;49.482;11.256;2023-09-19T08:39:50;2.30;;;1.70;;
20324;SDS011;10320;49.482;11.256;2023-09-19T08:42:16;1.75;;;1.50;;
20324;SDS011;10320;49.482;11.256;2023-09-19T08:44:45;4.32;;;1.60;;
20324;SDS011;10320;49.482;11.256;2023-09-19T08:47:11;3.20;;;1.83;;
20324;SDS011;10320;49.482;11.256;2023-09-19T08:52:27;3.28;;;1.73;;
20324;SDS011;10320;49.482;11.256;2023-09-19T08:54:58;2.33;;;1.70;;
20324;SDS011;10320;49.482;11.256;2023-09-19T08:57:29;1.90;;;1.70;;
20324;SDS011;10320;49.482;11.256;2023-09-19T09:00:00;2.17;;;1.80;;
20324;SDS011;10320;49.482;11.256;2023-09-19T09:02:26;3.35;;;1.70;;
20324;SDS011;10320;49.482;11.256;2023-09-19T09:04:53;3.30;;;1.70;;
20324;SDS011;10320;49.482;11.256;2023-09-19T09:07:20;3.55;;;1.65;;
20324;SDS011;10320;49.482;11.256;2023-09-19T09:09:47;2.63;;;2.03;;
20324;SDS011;10320;49.482;11.256;2023-09-19T09:12:14;1.73;;;1.63;;
20324;SDS011;10320;49.482;11.256;2023-09-19T09:14:44;3.10;;;1.75;;
20324;SDS011;10320;49.482;11.256;2023-09-19T09:17:12;3.28;;;1.52;;
20324;SDS011;10320;49.482;11.256;2023-09-19T09:19:38;2.95;;;1.50;;
20324;SDS011;10320;49.482;11.256;2023-09-19T09:22:08;2.55;;;1.55;;
20324;SDS011;10320;49.482;11.256;2023-09-19T09:24:34;2.50;;;1.65;;
20324;SDS011;10320;49.482;11.256;2023-09-19T09:27:06;1.65;;;1.50;;
20324;SDS011;10320;49.482;11.256;2023-09-19T09:29:48;2.75;;;1.60;;
20324;SDS011;10320;49.482;11.256;2023-09-19T09:32:23;2.05;;;1.20;;
20324;SDS011;10320;49.482;11.256;2023-09-19T09:34:53;2.30;;;1.38;;
20324;SDS011;10320;49.482;11.256;2023-09-19T09:37:20;1.90;;;1.58;;
20324;SDS011;10320;49.482;11.256;2023-09-19T09:40:02;3.05;;;1.50;;
20324;SDS011;10320;49.482;11.256;2023-09-19T09:42:41;3.20;;;1.58;;
20324;SDS011;10320;49.482;11.256;2023-09-19T09:45:14;5.43;;;1.48;;
20324;SDS011;10320;49.482;11.256;2023-09-19T09:47:45;2.25;;;1.60;;
20324;SDS011;10320;49.482;11.256;2023-09-19T09:50:27;2.38;;;1.50;;
20324;SDS011;10320;49.482;11.256;2023-09-19T09:56:02;2.10;;;1.50;;
20324;SDS011;10320;49.482;11.256;2023-09-19T09:58:35;1.73;;;1.42;;
20324;SDS011;10320;49.482;11.256;2023-09-19T10:01:01;1.42;;;1.13;;
20324;SDS011;10320;49.482;11.256;2023-09-19T10:03:34;1.77;;;1.25;;
20324;SDS011;10320;49.482;11.256;2023-09-19T10:06:04;2.90;;;1.30;;
20324;SDS011;10320;49.482;11.256;2023-09-19T10:08:59;2.13;;;1.20;;
20324;SDS011;10320;49.482;11.256;2023-09-19T10:11:30;1.52;;;1.20;;
20324;SDS011;10320;49.482;11.256;2023-09-19T10:13:57;1.70;;;1.20;;
20324;SDS011;10320;49.482;11.256;2023-09-19T10:16:26;2.28;;;1.00;;
20324;SDS011;10320;49.482;11.256;2023-09-19T10:18:55;1.88;;;1.20;;
20324;SDS011;10320;49.482;11.256;2023-09-19T10:21:24;2.60;;;1.23;;
20324;SDS011;10320;49.482;11.256;2023-09-19T10:23:52;2.67;;;1.35;;
20324;SDS011;10320;49.482;11.256;2023-09-19T10:26:21;3.42;;;1.45;;
20324;SDS011;10320;49.482;11.256;2023-09-19T10:28:49;2.17;;;1.55;;
20324;SDS011;10320;49.482;11.256;2023-09-19T10:31:18;3.50;;;1.77;;
20324;SDS011;10320;49.482;11.256;2023-09-19T10:33:45;1.77;;;1.33;;
20324;SDS011;10320;49.482;11.256;2023-09-19T10:36:14;1.75;;;1.38;;
20324;SDS011;10320;49.482;11.256;2023-09-19T10:38:40;2.65;;;1.70;;
20324;SDS011;10320;49.482;11.256;2023-09-19T10:41:09;3.63;;;1.58;;
20324;SDS011;10320;49.482;11.256;2023-09-19T10:43:36;1.58;;;1.30;;
20324;SDS011;10320;49.482;11.256;2023-09-19T10:46:07;2.05;;;1.45;;
20324;SDS011;10320;49.482;11.256;2023-09-19T10:48:36;3.67;;;1.63;;
20324;SDS011;10320;49.482;11.256;2023-09-19T10:51:07;1.65;;;1.55;;
20324;SDS011;10320;49.482;11.256;2023-09-19T10:53:42;1.70;;;1.60;;
20324;SDS011;10320;49.482;11.256;2023-09-19T10:56:09;3.15;;;1.85;;
20324;SDS011;10320;49.482;11.256;2023-09-19T10:58:42;2.55;;;1.73;;
20324;SDS011;10320;49.482;11.256;2023-09-19T11:01:10;1.70;;;1.60;;
20324;SDS011;10320;49.482;11.256;2023-09-19T11:03:43;2.00;;;1.80;;
20324;SDS011;10320;49.482;11.256;2023-09-19T11:11:54;1.95;;;1.70;;
20324;SDS011;10320;49.482;11.256;2023-09-19T11:22:24;3.03;;;1.85;;
20324;SDS011;10320;49.482;11.256;2023-09-19T11:24:51;1.80;;;1.70;;
20324;SDS011;10320;49.482;11.256;2023-09-19T11:27:21;2.15;;;1.70;;
20324;SDS011;10320;49.482;11.256;2023-09-19T11:29:47;3.80;;;2.08;;
20324;SDS011;10320;49.482;11.256;2023-09-19T11:32:14;2.85;;;1.80;;
20324;SDS011;10320;49.482;11.256;2023-09-19T11:34:42;1.77;;;1.48;;
20324;SDS011;10320;49.482;11.256;2023-09-19T11:39:37;2.97;;;1.95;;
20324;SDS011;10320;49.482;11.256;2023-09-19T11:44:48;3.88;;;1.80;;
20324;SDS011;10320;49.482;11.256;2023-09-19T11:47:17;2.17;;;1.77;;
20324;SDS011;10320;49.482;11.256;2023-09-19T11:49:44;2.63;;;1.92;;
20324;SDS011;10320;49.482;11.256;2023-09-19T11:52:10;2.15;;;1.80;;
20324;SDS011;10320;49.482;11.256;2023-09-19T11:54:39;2.90;;;1.90;;
20324;SDS011;10320;49.482;11.256;2023-09-19T11:57:06;4.25;;;2.00;;
20324;SDS011;10320;49.482;11.256;2023-09-19T11:59:33;2.90;;;1.70;;
20324;SDS011;10320;49.482;11.256;2023-09-19T12:02:03;2.72;;;1.50;;
20324;SDS011;10320;49.482;11.256;2023-09-19T12:04:36;3.33;;;2.03;;
20324;SDS011;10320;49.482;11.256;2023-09-19T12:07:12;3.95;;;1.80;;
20324;SDS011;10320;49.482;11.256;2023-09-19T12:10:02;2.45;;;1.65;;
20324;SDS011;10320;49.482;11.256;2023-09-19T12:12:29;3.25;;;1.75;;
20324;SDS011;10320;49.482;11.256;2023-09-19T12:14:57;3.47;;;1.80;;
20324;SDS011;10320;49.482;11.256;2023-09-19T12:17:34;3.35;;;1.60;;
20324;SDS011;10320;49.482;11.256;2023-09-19T12:20:01;2.60;;;1.60;;
20324;SDS011;10320;49.482;11.256;2023-09-19T12:22:44;2.80;;;1.70;;
20324;SDS011;10320;49.482;11.256;2023-09-19T12:25:11;3.33;;;1.40;;
20324;SDS011;10320;49.482;11.256;2023-09-19T12:27:47;2.33;;;1.60;;
20324;SDS011;10320;49.482;11.256;2023-09-19T12:30:17;3.33;;;1.40;;
20324;SDS011;10320;49.482;11.256;2023-09-19T12:32:45;2.53;;;1.60;;
20324;SDS011;10320;49.482;11.256;2023-09-19T12:35:29;2.58;;;1.33;;
20324;SDS011;10320;49.482;11.256;2023-09-19T12:37:57;3.85;;;1.50;;
20324;SDS011;10320;49.482;11.256;2023-09-19T12:40:23;2.85;;;1.80;;
20324;SDS011;10320;49.482;11.256;2023-09-19T12:42:54;2.58;;;1.60;;
20324;SDS011;10320;49.482;11.256;2023-09-19T12:45:20;3.75;;;1.40;;
20324;SDS011;10320;49.482;11.256;2023-09-19T12:50:33;2.38;;;1.40;;
20324;SDS011;10320;49.482;11.256;2023-09-19T12:52:59;2.83;;;2.00;;
20324;SDS011;10320;49.482;11.256;2023-09-19T12:55:26;2.75;;;2.00;;
20324;SDS011;10320;49.482;11.256;2023-09-19T13:08:20;2.00;;;1.40;;
20324;SDS011;10320;49.482;11.256;2023-09-19T13:11:05;3.22;;;1.48;;
20324;SDS011;10320;49.482;11.256;2023-09-19T13:13:39;2.13;;;1.30;;
20324;SDS011;10320;49.482;11.256;2023-09-19T13:16:06;2.45;;;1.40;;
20324;SDS011;10320;49.482;11.256;2023-09-19T13:21:10;2.60;;;1.40;;
20324;SDS011;10320;49.482;11.256;2023-09-19T13:23:40;1.77;;;1.40;;
20324;SDS011;10320;49.482;11.256;2023-09-19T13:26:07;2.47;;;1.48;;
20324;SDS011;10320;49.482;11.256;2023-09-19T13:28:33;2.33;;;1.50;;
20324;SDS011;10320;49.482;11.256;2023-09-19T13:31:00;3.67;;;1.50;;
20324;SDS011;10320;49.482;11.256;2023-09-19T13:33:26;3.10;;;1.70;;
20324;SDS011;10320;49.482;11.256;2023-09-19T13:35:52;4.82;;;1.55;;
20324;SDS011;10320;49.482;11.256;2023-09-19T13:38:18;3.75;;;1.63;;
20324;SDS011;10320;49.482;11.256;2023-09-19T13:40:47;2.33;;;1.65;;
20324;SDS011;10320;49.482;11.256;2023-09-19T13:43:14;3.38;;;1.60;;
20324;SDS011;10320;49.482;11.256;2023-09-19T13:45:41;2.55;;;1.38;;
20324;SDS011;10320;49.482;11.256;2023-09-19T13:48:07;2.33;;;1.30;;
20324;SDS011;10320;49.482;11.256;2023-09-19T13:50:34;3.17;;;1.70;;
20324;SDS011;10320;49.482;11.256;2023-09-19T13:53:01;2.30;;;1.60;;
20324;SDS011;10320;49.482;11.256;2023-09-19T13:55:28;2.20;;;1.65;;
20324;SDS011;10320;49.482;11.256;2023-09-19T13:57:54;1.80;;;1.50;;
20324;SDS011;10320;49.482;11.256;2023-09-19T14:00:21;2.78;;;1.60;;
20324;SDS011;10320;49.482;11.256;2023-09-19T14:02:47;2.00;;;1.65;;
20324;SDS011;10320;49.482;11.256;2023-09-19T14:05:14;2.58;;;1.45;;
20324;SDS011;10320;49.482;11.256;2023-09-19T14:07:42;1.60;;;1.45;;
20324;SDS011;10320;49.482;11.256;2023-09-19T14:10:08;1.85;;;1.58;;
20324;SDS011;10320;49.482;11.256;2023-09-19T14:12:35;2.65;;;1.73;;
20324;SDS011;10320;49.482;11.256;2023-09-19T14:15:02;2.05;;;1.85;;
20324;SDS011;10320;49.482;11.256;2023-09-19T14:17:28;3.30;;;1.45;;
20324;SDS011;10320;49.482;11.256;2023-09-19T14:19:54;2.25;;;1.55;;
20324;SDS011;10320;49.482;11.256;2023-09-19T14:22:21;2.90;;;1.70;;
20324;SDS011;10320;49.482;11.256;2023-09-19T14:24:47;3.38;;;1.65;;
20324;SDS011;10320;49.482;11.256;2023-09-19T14:27:13;2.00;;;1.48;;
20324;SDS011;10320;49.482;11.256;2023-09-19T14:29:39;2.85;;;1.40;;
20324;SDS011;10320;49.482;11.256;2023-09-19T14:32:06;2.13;;;1.73;;
20324;SDS011;10320;49.482;11.256;2023-09-19T14:34:32;2.88;;;1.63;;
20324;SDS011;10320;49.482;11.256;2023-09-19T14:36:58;2.63;;;1.38;;
20324;SDS011;10320;49.482;11.256;2023-09-19T14:39:24;2.45;;;1.48;;
20324;SDS011;10320;49.482;11.256;2023-09-19T14:41:51;2.30;;;1.58;;
20324;SDS011;10320;49.482;11.256;2023-09-19T14:44:17;1.67;;;1.58;;
20324;SDS011;10320;49.482;11.256;2023-09-19T14:46:43;2.75;;;1.48;;
20324;SDS011;10320;49.482;11.256;2023-09-19T14:49:10;3.47;;;1.80;;
20324;SDS011;10320;49.482;11.256;2023-09-19T14:51:37;2.03;;;1.45;;
20324;SDS011;10320;49.482;11.256;2023-09-19T14:54:04;1.55;;;1.40;;
20324;SDS011;10320;49.482;11.256;2023-09-19T14:56:32;2.20;;;1.58;;
20324;SDS011;10320;49.482;11.256;2023-09-19T14:58:59;2.30;;;1.48;;
20324;SDS011;10320;49.482;11.256;2023-09-19T15:01:25;1.75;;;1.40;;
20324;SDS011;10320;49.482;11.256;2023-09-19T15:03:51;2.20;;;1.20;;
20324;SDS011;10320;49.482;11.256;2023-09-19T15:06:19;2.72;;;1.52;;
20324;SDS011;10320;49.482;11.256;2023-09-19T15:08:45;1.60;;;1.40;;
20324;SDS011;10320;49.482;11.256;2023-09-19T15:11:21;1.85;;;1.23;;
20324;SDS011;10320;49.482;11.256;2023-09-19T15:13:48;1.65;;;1.33;;
20324;SDS011;10320;49.482;11.256;2023-09-19T15:16:16;2.30;;;1.52;;
20324;SDS011;10320;49.482;11.256;2023-09-19T15:18:43;1.88;;;1.33;;
20324;SDS011;10320;49.482;11.256;2023-09-19T15:21:10;2.55;;;1.40;;
20324;SDS011;10320;49.482;11.256;2023-09-19T15:23:37;1.63;;;1.50;;
20324;SDS011;10320;49.482;11.256;2023-09-19T15:26:04;3.05;;;1.52;;
20324;SDS011;10320;49.482;11.256;2023-09-19T15:28:30;2.60;;;1.70;;
20324;SDS011;10320;49.482;11.256;2023-09-19T15:31:00;1.40;;;1.20;;
20324;SDS011;10320;49.482;11.256;2023-09-19T15:33:27;2.53;;;1.50;;
20324;SDS011;10320;49.482;11.256;2023-09-19T15:38:28;1.83;;;1.40;;
20324;SDS011;10320;49.482;11.256;2023-09-19T15:40:54;3.00;;;1.75;;
20324;SDS011;10320;49.482;11.256;2023-09-19T15:43:20;3.70;;;1.80;;